Terminal Aerodrome Forecast
Issued by NWS Sterling, VA

Home | Current Version | Previous Version | Text Only | Print | Product List | Glossary On
Versions: 1 2 3 4 5 6 7 8 9 10 11 12 13 14 15 16 17 18 19 20 21 22 23
314
FTUS41 KLWX 172054 AAB
TAFDCA
TAF AMD
KDCA 172054Z 1721/1818 19007KT 4SM BR OVC008
      TEMPO 1721/1724 2SM BR
     FM180200 21008KT 3SM BR BKN010
     FM180700 25006KT 1SM BR BKN015
     FM180900 28006KT P6SM BKN030
     FM181000 29006KT P6SM BKN050
     FM181500 30011G18KT P6SM SCT060
     FM181700 31013G21KT P6SM SCT030=

USA.gov is the U.S. government's official web portal to all federal, state and local government web resources and services.